Nur fliegen ist schöner ....

Ab jetzt - Rundflüge, Fallschirmspringen und noch mehr wieder möglich!

Willkommen beim Flugservice Bautzen GmbH

Wir sind eine nach europäischen Richtlinien zugelassene Flugschule und lizenziertes Luftfahrtunternehmen. Bei uns können sie nicht nur Rundflüge über die Oberlausitz oder Sachsen buchen, sondern in unserer Flugschule selber das Fliegen erlernen. Erfahrene Fluglehrer stehen Ihnen dabei zur Seite.

Wir bieten Ihnen außerdem spezielle Flüge zur Vermessung oder Fotoflüge für Luftbildaufnahmen an. In Zusammenarbeit mit dem Fallschirmsportclub Dresden und dem Cottbuser Fallschirmsportclub setzen wir am Flugplatz Bautzen und Neuhausen Fallschirmspringer ab.
Schauen Sie sich in Ruhe bei uns um und wenn Sie Fragen haben oder weitere Informationen benötigen, scheuen Sie sich nicht Kontakt mit uns aufzunehmen.

Gutscheine für Rundflüge und Tandemsprünge können Sie ganz leicht auch online in unserem Shop erwerben.

Terminkalender

Letzter Monat Juni 2021 Nächster Monat
Mo Di Mi Do Fr Sa So
week 22 1 2 3 4 5 6
week 23 7 8 9 10 11 12 13
week 24 14 15 16 17 18 19 20
week 25 21 22 23 24 25 26 27
week 26 28 29 30

Flugwetterinfo

[Quelle: ADDS]
METAR
EDDC 171720Z 16007KT 120V190 CAVOK 30/12 Q1015 NOSIG =
EDDC 171100Z 1712/1812 13012KT CAVOK BECMG 1715/1717 13007KT BECMG 1806/1808 15012KT PROB30 TEMPO 1809/1812 15015G25KT
TAF
EDDC 171100Z 1712/1812 13012KT CAVOK BECMG 1715/1717 13007KT BECMG 1806/1808 15012KT PROB30 TEMPO 1809/1812 15015G25KT =
SR / SS: 02:45 / 19:20 UTC (EDAB Flugplatz Bautzen 2021-06-17)

Öffnungszeiten

des Flugplatzes Bautzen erfahren Sie hier:

flugplatz bautzen logo
Flugservice Bautzen GmbH, Kornmarkt 34, 02625 Bautzen  Telefon: +49 (3591) 211105, Telefax: +49 (3591) 274512, E-Mail:  flugservice(at)fsbautzen.de